sensor_id;sensor_type;location;lat;lon;timestamp;pressure;altitude;pressure_sealevel;temperature;humidity
61384;BME280;63511;49.346;8.798;2022-10-04T00:00:27;101011.19;;;12.52;94.06
61384;BME280;63511;49.346;8.798;2022-10-04T00:02:59;101011.50;;;12.56;93.39
61384;BME280;63511;49.346;8.798;2022-10-04T00:05:27;101002.38;;;12.35;93.95
61384;BME280;63511;49.346;8.798;2022-10-04T00:07:58;101012.31;;;12.32;94.16
61384;BME280;63511;49.346;8.798;2022-10-04T00:10:30;101010.66;;;12.09;93.99
61384;BME280;63511;49.346;8.798;2022-10-04T00:12:59;101004.91;;;12.23;93.89
61384;BME280;63511;49.346;8.798;2022-10-04T00:25:49;100979.34;;;12.44;91.60
61384;BME280;63511;49.346;8.798;2022-10-04T00:35:59;101015.28;;;11.80;96.50
61384;BME280;63511;49.346;8.798;2022-10-04T00:38:25;101003.06;;;11.98;94.85
61384;BME280;63511;49.346;8.798;2022-10-04T00:41:04;101003.84;;;12.08;93.85
61384;BME280;63511;49.346;8.798;2022-10-04T00:43:39;101002.41;;;11.88;92.95
61384;BME280;63511;49.346;8.798;2022-10-04T00:46:14;100999.66;;;11.97;93.01
61384;BME280;63511;49.346;8.798;2022-10-04T00:49:00;101002.56;;;11.68;94.63
61384;BME280;63511;49.346;8.798;2022-10-04T00:56:55;101005.25;;;11.93;93.40
61384;BME280;63511;49.346;8.798;2022-10-04T00:59:37;101002.03;;;11.72;92.82
61384;BME280;63511;49.346;8.798;2022-10-04T01:02:15;100996.13;;;11.83;92.77
61384;BME280;63511;49.346;8.798;2022-10-04T01:04:48;101001.69;;;11.68;94.24
61384;BME280;63511;49.346;8.798;2022-10-04T01:07:22;101002.00;;;11.49;94.77
61384;BME280;63511;49.346;8.798;2022-10-04T01:09:54;100995.09;;;11.25;96.99
61384;BME280;63511;49.346;8.798;2022-10-04T01:12:59;100995.84;;;11.12;97.72
61384;BME280;63511;49.346;8.798;2022-10-04T01:23:33;100975.66;;;11.24;95.99
61384;BME280;63511;49.346;8.798;2022-10-04T01:26:04;100970.69;;;11.14;95.97
61384;BME280;63511;49.346;8.798;2022-10-04T01:28:32;100975.97;;;11.17;97.12
61384;BME280;63511;49.346;8.798;2022-10-04T01:31:00;100969.56;;;11.10;97.16
61384;BME280;63511;49.346;8.798;2022-10-04T01:33:28;100976.88;;;11.29;95.61
61384;BME280;63511;49.346;8.798;2022-10-04T01:35:56;100968.78;;;11.44;95.60
61384;BME280;63511;49.346;8.798;2022-10-04T01:38:22;100962.34;;;11.26;94.16
61384;BME280;63511;49.346;8.798;2022-10-04T01:40:54;100960.41;;;11.00;97.44
61384;BME280;63511;49.346;8.798;2022-10-04T01:43:30;100965.25;;;10.97;96.51
61384;BME280;63511;49.346;8.798;2022-10-04T01:46:06;100951.94;;;11.00;96.61
61384;BME280;63511;49.346;8.798;2022-10-04T01:48:35;100947.72;;;10.89;97.51
61384;BME280;63511;49.346;8.798;2022-10-04T01:51:07;100944.25;;;10.98;97.33
61384;BME280;63511;49.346;8.798;2022-10-04T01:53:43;100940.69;;;11.18;95.49
61384;BME280;63511;49.346;8.798;2022-10-04T01:56:21;100939.69;;;11.16;95.26
61384;BME280;63511;49.346;8.798;2022-10-04T01:58:55;100944.16;;;10.97;95.66
61384;BME280;63511;49.346;8.798;2022-10-04T02:01:49;100949.19;;;10.97;95.82
61384;BME280;63511;49.346;8.798;2022-10-04T02:04:19;100936.06;;;11.13;96.95
61384;BME280;63511;49.346;8.798;2022-10-04T02:06:50;100937.91;;;11.15;96.08
61384;BME280;63511;49.346;8.798;2022-10-04T02:09:23;100932.78;;;11.25;95.58
61384;BME280;63511;49.346;8.798;2022-10-04T02:11:51;100930.28;;;11.37;94.18
61384;BME280;63511;49.346;8.798;2022-10-04T02:14:21;100929.41;;;11.48;93.90
61384;BME280;63511;49.346;8.798;2022-10-04T02:16:50;100931.81;;;11.46;93.12
61384;BME280;63511;49.346;8.798;2022-10-04T02:19:16;100938.09;;;11.51;92.87
61384;BME280;63511;49.346;8.798;2022-10-04T02:21:44;100929.28;;;11.35;92.96
61384;BME280;63511;49.346;8.798;2022-10-04T02:24:14;100924.50;;;11.04;94.35
61384;BME280;63511;49.346;8.798;2022-10-04T02:26:40;100926.75;;;11.35;94.00
61384;BME280;63511;49.346;8.798;2022-10-04T02:29:05;100922.28;;;11.54;93.00
61384;BME280;63511;49.346;8.798;2022-10-04T02:31:33;100926.00;;;11.47;92.36
61384;BME280;63511;49.346;8.798;2022-10-04T02:34:18;100921.94;;;11.38;92.47
61384;BME280;63511;49.346;8.798;2022-10-04T02:36:43;100911.34;;;11.08;93.85
61384;BME280;63511;49.346;8.798;2022-10-04T02:39:14;100910.16;;;10.93;95.38
61384;BME280;63511;49.346;8.798;2022-10-04T02:49:37;100894.88;;;11.48;93.31
61384;BME280;63511;49.346;8.798;2022-10-04T02:57:22;100897.84;;;11.43;93.37
61384;BME280;63511;49.346;8.798;2022-10-04T02:59:54;100903.94;;;11.00;94.47
61384;BME280;63511;49.346;8.798;2022-10-04T03:02:29;100900.34;;;11.20;93.13
61384;BME280;63511;49.346;8.798;2022-10-04T03:05:04;100895.03;;;11.05;93.87
61384;BME280;63511;49.346;8.798;2022-10-04T03:07:31;100894.84;;;11.14;93.61
61384;BME280;63511;49.346;8.798;2022-10-04T03:10:03;100907.91;;;11.20;92.59
61384;BME280;63511;49.346;8.798;2022-10-04T03:12:33;100905.75;;;11.24;92.29
61384;BME280;63511;49.346;8.798;2022-10-04T03:15:05;100905.63;;;11.23;93.40
61384;BME280;63511;49.346;8.798;2022-10-04T03:17:33;100901.59;;;11.48;92.45
61384;BME280;63511;49.346;8.798;2022-10-04T03:19:59;100907.75;;;11.28;91.61
61384;BME280;63511;49.346;8.798;2022-10-04T03:22:25;100904.41;;;11.18;92.15
61384;BME280;63511;49.346;8.798;2022-10-04T03:24:56;100891.22;;;11.22;92.29
61384;BME280;63511;49.346;8.798;2022-10-04T03:27:28;100887.16;;;11.35;91.42
61384;BME280;63511;49.346;8.798;2022-10-04T03:29:55;100885.31;;;11.33;91.35
61384;BME280;63511;49.346;8.798;2022-10-04T03:32:24;100883.31;;;11.40;91.37
61384;BME280;63511;49.346;8.798;2022-10-04T03:34:54;100884.22;;;11.29;91.28
61384;BME280;63511;49.346;8.798;2022-10-04T03:37:20;100887.69;;;11.20;91.38
61384;BME280;63511;49.346;8.798;2022-10-04T03:39:52;100883.84;;;10.68;93.26
61384;BME280;63511;49.346;8.798;2022-10-04T03:42:21;100878.09;;;11.04;93.19
61384;BME280;63511;49.346;8.798;2022-10-04T03:44:52;100882.88;;;11.23;91.75
61384;BME280;63511;49.346;8.798;2022-10-04T03:47:31;100872.66;;;11.21;92.31
61384;BME280;63511;49.346;8.798;2022-10-04T03:50:01;100874.50;;;11.12;91.71
61384;BME280;63511;49.346;8.798;2022-10-04T03:52:32;100874.53;;;11.35;90.92
61384;BME280;63511;49.346;8.798;2022-10-04T03:55:01;100875.31;;;11.34;89.82
61384;BME280;63511;49.346;8.798;2022-10-04T03:57:31;100877.47;;;11.30;89.93
61384;BME280;63511;49.346;8.798;2022-10-04T03:59:57;100874.78;;;10.82;91.61
61384;BME280;63511;49.346;8.798;2022-10-04T04:02:35;100881.94;;;10.87;92.67
61384;BME280;63511;49.346;8.798;2022-10-04T04:08:13;100894.69;;;11.00;92.45
61384;BME280;63511;49.346;8.798;2022-10-04T04:10:46;100890.41;;;10.99;92.35
61384;BME280;63511;49.346;8.798;2022-10-04T04:16:08;100910.09;;;10.70;94.02
61384;BME280;63511;49.346;8.798;2022-10-04T04:18:36;100911.75;;;10.70;93.80
61384;BME280;63511;49.346;8.798;2022-10-04T04:21:05;100906.06;;;10.84;92.62
61384;BME280;63511;49.346;8.798;2022-10-04T04:23:36;100903.00;;;10.54;93.14
61384;BME280;63511;49.346;8.798;2022-10-04T04:28:53;100890.53;;;10.68;92.77
61384;BME280;63511;49.346;8.798;2022-10-04T04:31:26;100884.91;;;10.93;92.33
61384;BME280;63511;49.346;8.798;2022-10-04T04:36:29;100895.66;;;10.91;91.82
61384;BME280;63511;49.346;8.798;2022-10-04T04:42:20;100906.19;;;10.85;91.62
61384;BME280;63511;49.346;8.798;2022-10-04T04:44:48;100902.25;;;10.34;93.63
61384;BME280;63511;49.346;8.798;2022-10-04T04:47:42;100898.00;;;10.66;93.06
61384;BME280;63511;49.346;8.798;2022-10-04T04:50:14;100901.44;;;10.45;92.16
61384;BME280;63511;49.346;8.798;2022-10-04T04:52:45;100897.88;;;10.64;91.29
61384;BME280;63511;49.346;8.798;2022-10-04T04:57:43;100915.69;;;10.66;92.29
61384;BME280;63511;49.346;8.798;2022-10-04T05:00:16;100910.72;;;10.56;92.09
61384;BME280;63511;49.346;8.798;2022-10-04T05:02:50;100902.56;;;10.82;90.75
61384;BME280;63511;49.346;8.798;2022-10-04T05:05:43;100911.13;;;10.84;90.66
61384;BME280;63511;49.346;8.798;2022-10-04T05:10:48;100908.75;;;10.63;91.41
61384;BME280;63511;49.346;8.798;2022-10-04T05:13:16;100898.56;;;10.74;90.17
61384;BME280;63511;49.346;8.798;2022-10-04T05:15:46;100889.81;;;10.80;90.13
61384;BME280;63511;49.346;8.798;2022-10-04T05:20:53;100895.00;;;10.93;89.23
61384;BME280;63511;49.346;8.798;2022-10-04T05:23:21;100904.34;;;10.94;90.34
61384;BME280;63511;49.346;8.798;2022-10-04T05:25:48;100890.56;;;10.79;89.02
61384;BME280;63511;49.346;8.798;2022-10-04T05:33:12;100895.41;;;10.76;89.14
61384;BME280;63511;49.346;8.798;2022-10-04T05:39:01;100888.44;;;10.62;88.46
61384;BME280;63511;49.346;8.798;2022-10-04T05:44:19;100905.59;;;10.44;89.33
61384;BME280;63511;49.346;8.798;2022-10-04T05:46:47;100904.00;;;10.03;92.69
61384;BME280;63511;49.346;8.798;2022-10-04T05:49:14;100900.25;;;10.30;92.26
61384;BME280;63511;49.346;8.798;2022-10-04T05:51:51;100899.59;;;10.32;91.24
61384;BME280;63511;49.346;8.798;2022-10-04T05:54:23;100889.78;;;10.47;90.90
61384;BME280;63511;49.346;8.798;2022-10-04T06:00:12;100894.00;;;10.58;90.28
61384;BME280;63511;49.346;8.798;2022-10-04T06:07:53;100897.13;;;10.65;89.47
61384;BME280;63511;49.346;8.798;2022-10-04T06:13:42;100897.53;;;10.82;89.67
61384;BME280;63511;49.346;8.798;2022-10-04T06:22:17;100907.03;;;10.74;89.89
61384;BME280;63511;49.346;8.798;2022-10-04T06:30:04;100902.63;;;11.05;88.94
61384;BME280;63511;49.346;8.798;2022-10-04T06:38:10;100917.91;;;11.06;88.71
61384;BME280;63511;49.346;8.798;2022-10-04T07:00:03;100898.75;;;11.55;88.58
61384;BME280;63511;49.346;8.798;2022-10-04T07:05:24;100914.03;;;11.68;86.26
61384;BME280;63511;49.346;8.798;2022-10-04T07:08:04;100915.34;;;11.63;86.87
61384;BME280;63511;49.346;8.798;2022-10-04T07:10:36;100927.31;;;11.42;88.89
61384;BME280;63511;49.346;8.798;2022-10-04T07:15:57;100918.31;;;11.69;88.12
61384;BME280;63511;49.346;8.798;2022-10-04T07:18:33;100919.97;;;11.92;87.50
61384;BME280;63511;49.346;8.798;2022-10-04T07:21:07;100922.41;;;11.90;85.91
61384;BME280;63511;49.346;8.798;2022-10-04T07:23:48;100915.03;;;11.70;85.97
61384;BME280;63511;49.346;8.798;2022-10-04T07:29:21;100925.91;;;11.58;88.62
61384;BME280;63511;49.346;8.798;2022-10-04T07:32:04;100930.97;;;11.69;88.87
61384;BME280;63511;49.346;8.798;2022-10-04T07:37:16;100928.13;;;11.76;88.86
61384;BME280;63511;49.346;8.798;2022-10-04T07:42:30;100931.41;;;11.99;88.29
61384;BME280;63511;49.346;8.798;2022-10-04T07:45:51;100928.13;;;12.11;88.11
61384;BME280;63511;49.346;8.798;2022-10-04T07:48:11;100931.59;;;12.25;87.68
61384;BME280;63511;49.346;8.798;2022-10-04T07:53:27;100928.63;;;12.19;87.82
61384;BME280;63511;49.346;8.798;2022-10-04T07:56:05;100928.72;;;12.32;87.14
61384;BME280;63511;49.346;8.798;2022-10-04T08:04:01;100926.66;;;12.26;88.46
61384;BME280;63511;49.346;8.798;2022-10-04T08:15:27;100941.22;;;11.94;92.09
61384;BME280;63511;49.346;8.798;2022-10-04T08:17:40;100930.50;;;12.33;91.71
61384;BME280;63511;49.346;8.798;2022-10-04T09:20:15;100899.00;;;15.79;77.94
61384;BME280;63511;49.346;8.798;2022-10-04T09:25:46;100888.34;;;15.86;77.65
61384;BME280;63511;49.346;8.798;2022-10-04T09:47:26;100883.38;;;16.83;75.24
61384;BME280;63511;49.346;8.798;2022-10-04T09:55:50;100879.06;;;16.82;74.39
61384;BME280;63511;49.346;8.798;2022-10-04T10:17:45;100889.22;;;17.15;71.77
61384;BME280;63511;49.346;8.798;2022-10-04T10:48:52;100856.56;;;18.35;68.14
61384;BME280;63511;49.346;8.798;2022-10-04T11:00:16;100856.91;;;18.23;65.72
61384;BME280;63511;49.346;8.798;2022-10-04T11:05:40;100848.91;;;18.15;64.28
61384;BME280;63511;49.346;8.798;2022-10-04T11:17:28;100830.41;;;18.99;64.07
61384;BME280;63511;49.346;8.798;2022-10-04T11:20:20;100830.16;;;18.93;63.93
61384;BME280;63511;49.346;8.798;2022-10-04T11:28:22;100823.88;;;19.28;64.51
61384;BME280;63511;49.346;8.798;2022-10-04T11:47:47;100805.91;;;19.47;62.33
61384;BME280;63511;49.346;8.798;2022-10-04T12:16:13;100799.53;;;19.17;63.29
61384;BME280;63511;49.346;8.798;2022-10-04T12:18:56;100790.31;;;19.00;63.27
61384;BME280;63511;49.346;8.798;2022-10-04T12:33:13;100771.66;;;19.45;63.97
61384;BME280;63511;49.346;8.798;2022-10-04T12:36:03;100763.94;;;19.23;63.47
61384;BME280;63511;49.346;8.798;2022-10-04T12:38:45;100760.69;;;19.27;61.71
61384;BME280;63511;49.346;8.798;2022-10-04T12:49:58;100756.84;;;19.38;62.61
61384;BME280;63511;49.346;8.798;2022-10-04T12:52:31;100748.34;;;19.39;62.29
61384;BME280;63511;49.346;8.798;2022-10-04T13:00:15;100745.38;;;19.29;62.54
61384;BME280;63511;49.346;8.798;2022-10-04T13:05:21;100746.88;;;19.67;64.26
61384;BME280;63511;49.346;8.798;2022-10-04T13:13:20;100751.25;;;19.93;62.51
61384;BME280;63511;49.346;8.798;2022-10-04T13:21:17;100733.97;;;19.87;61.47
61384;BME280;63511;49.346;8.798;2022-10-04T13:24:06;100730.19;;;19.78;59.89
61384;BME280;63511;49.346;8.798;2022-10-04T13:32:03;100725.78;;;19.98;60.70
61384;BME280;63511;49.346;8.798;2022-10-04T13:50:25;100726.41;;;20.16;60.22
61384;BME280;63511;49.346;8.798;2022-10-04T13:55:51;100722.78;;;20.09;60.33
61384;BME280;63511;49.346;8.798;2022-10-04T13:59:18;100716.94;;;20.13;59.98
61384;BME280;63511;49.346;8.798;2022-10-04T14:21:35;100708.97;;;19.82;57.38
61384;BME280;63511;49.346;8.798;2022-10-04T14:24:20;100703.53;;;20.22;59.34
61384;BME280;63511;49.346;8.798;2022-10-04T14:27:26;100705.50;;;20.05;60.48
61384;BME280;63511;49.346;8.798;2022-10-04T14:35:13;100685.56;;;20.20;61.28
61384;BME280;63511;49.346;8.798;2022-10-04T14:40:32;100690.63;;;20.19;60.12
61384;BME280;63511;49.346;8.798;2022-10-04T14:46:33;100688.56;;;19.85;58.68
61384;BME280;63511;49.346;8.798;2022-10-04T14:52:14;100684.84;;;20.24;59.74
61384;BME280;63511;49.346;8.798;2022-10-04T14:55:06;100685.38;;;20.16;60.99
61384;BME280;63511;49.346;8.798;2022-10-04T15:00:21;100682.81;;;20.16;61.97
61384;BME280;63511;49.346;8.798;2022-10-04T15:08:30;100688.19;;;19.98;62.24
61384;BME280;63511;49.346;8.798;2022-10-04T15:11:06;100676.00;;;20.16;62.15
61384;BME280;63511;49.346;8.798;2022-10-04T15:13:38;100674.34;;;20.18;62.20
61384;BME280;63511;49.346;8.798;2022-10-04T15:19:08;100675.97;;;19.91;61.17
61384;BME280;63511;49.346;8.798;2022-10-04T15:22:00;100667.00;;;19.78;60.76
61384;BME280;63511;49.346;8.798;2022-10-04T15:24:43;100665.69;;;19.89;61.31
61384;BME280;63511;49.346;8.798;2022-10-04T15:30:07;100664.69;;;19.86;61.95
61384;BME280;63511;49.346;8.798;2022-10-04T15:32:40;100665.56;;;19.86;62.26
61384;BME280;63511;49.346;8.798;2022-10-04T15:37:56;100657.38;;;19.97;63.05
61384;BME280;63511;49.346;8.798;2022-10-04T15:40:34;100648.28;;;20.06;62.64
61384;BME280;63511;49.346;8.798;2022-10-04T15:43:25;100651.50;;;19.99;63.76
61384;BME280;63511;49.346;8.798;2022-10-04T15:46:28;100656.09;;;19.84;64.39
61384;BME280;63511;49.346;8.798;2022-10-04T15:49:11;100657.72;;;19.82;63.92
61384;BME280;63511;49.346;8.798;2022-10-04T16:00:46;100658.25;;;19.49;65.82
61384;BME280;63511;49.346;8.798;2022-10-04T16:06:02;100653.56;;;19.62;66.90
61384;BME280;63511;49.346;8.798;2022-10-04T16:08:45;100652.81;;;19.42;65.48
61384;BME280;63511;49.346;8.798;2022-10-04T16:11:28;100655.59;;;19.46;65.99
61384;BME280;63511;49.346;8.798;2022-10-04T16:19:37;100659.06;;;19.26;67.22
61384;BME280;63511;49.346;8.798;2022-10-04T16:24:42;100664.13;;;19.25;67.64
61384;BME280;63511;49.346;8.798;2022-10-04T16:42:57;100653.44;;;18.49;74.00
61384;BME280;63511;49.346;8.798;2022-10-04T16:45:33;100664.28;;;18.43;74.39
61384;BME280;63511;49.346;8.798;2022-10-04T16:53:52;100656.81;;;17.87;77.41
61384;BME280;63511;49.346;8.798;2022-10-04T16:57:08;100651.66;;;17.66;78.06
61384;BME280;63511;49.346;8.798;2022-10-04T16:59:10;100643.00;;;17.45;78.81
61384;BME280;63511;49.346;8.798;2022-10-04T17:04:38;100639.50;;;17.24;80.10
61384;BME280;63511;49.346;8.798;2022-10-04T17:13:18;100634.59;;;16.74;81.66
61384;BME280;63511;49.346;8.798;2022-10-04T17:15:46;100631.69;;;16.66;82.09
61384;BME280;63511;49.346;8.798;2022-10-04T17:18:27;100637.78;;;16.52;82.23
61384;BME280;63511;49.346;8.798;2022-10-04T17:21:02;100647.13;;;16.17;83.51
61384;BME280;63511;49.346;8.798;2022-10-04T17:35:11;100667.06;;;15.92;86.67
61384;BME280;63511;49.346;8.798;2022-10-04T17:38:02;100666.81;;;16.04;84.39
61384;BME280;63511;49.346;8.798;2022-10-04T17:43:21;100671.47;;;15.95;84.89
61384;BME280;63511;49.346;8.798;2022-10-04T17:46:12;100670.13;;;15.85;84.58
61384;BME280;63511;49.346;8.798;2022-10-04T17:48:45;100672.91;;;15.73;84.41
61384;BME280;63511;49.346;8.798;2022-10-04T17:54:31;100687.94;;;15.53;84.42
61384;BME280;63511;49.346;8.798;2022-10-04T17:59:57;100690.19;;;15.32;86.31
61384;BME280;63511;49.346;8.798;2022-10-04T18:03:17;100694.06;;;15.25;85.94
61384;BME280;63511;49.346;8.798;2022-10-04T18:05:22;100699.28;;;15.28;86.57
61384;BME280;63511;49.346;8.798;2022-10-04T18:07:56;100696.75;;;15.28;86.23
61384;BME280;63511;49.346;8.798;2022-10-04T18:10:30;100691.66;;;15.12;87.15
61384;BME280;63511;49.346;8.798;2022-10-04T18:16:13;100687.59;;;14.85;88.14
61384;BME280;63511;49.346;8.798;2022-10-04T18:18:44;100690.13;;;14.85;86.87
61384;BME280;63511;49.346;8.798;2022-10-04T18:23:54;100692.44;;;14.66;87.65
61384;BME280;63511;49.346;8.798;2022-10-04T18:26:20;100685.06;;;14.70;87.23
61384;BME280;63511;49.346;8.798;2022-10-04T18:28:48;100688.66;;;14.74;86.77
61384;BME280;63511;49.346;8.798;2022-10-04T18:31:28;100693.56;;;14.56;87.23
61384;BME280;63511;49.346;8.798;2022-10-04T18:34:26;100699.47;;;14.55;87.46
61384;BME280;63511;49.346;8.798;2022-10-04T18:39:32;100700.75;;;14.49;87.57
61384;BME280;63511;49.346;8.798;2022-10-04T18:42:34;100701.81;;;14.37;86.51
61384;BME280;63511;49.346;8.798;2022-10-04T18:45:18;100699.06;;;14.34;86.60
61384;BME280;63511;49.346;8.798;2022-10-04T18:47:45;100700.72;;;14.34;87.27
61384;BME280;63511;49.346;8.798;2022-10-04T18:56:07;100701.50;;;14.18;87.58
61384;BME280;63511;49.346;8.798;2022-10-04T19:04:34;100704.47;;;14.11;87.78
61384;BME280;63511;49.346;8.798;2022-10-04T19:07:17;100703.50;;;14.09;87.30
61384;BME280;63511;49.346;8.798;2022-10-04T19:15:45;100713.06;;;13.85;89.05
61384;BME280;63511;49.346;8.798;2022-10-04T19:18:38;100715.63;;;13.85;88.66
61384;BME280;63511;49.346;8.798;2022-10-04T19:24:04;100714.47;;;13.80;86.83
61384;BME280;63511;49.346;8.798;2022-10-04T19:26:37;100725.91;;;13.74;87.15
61384;BME280;63511;49.346;8.798;2022-10-04T19:31:55;100728.94;;;13.68;87.96
61384;BME280;63511;49.346;8.798;2022-10-04T19:37:04;100726.06;;;13.62;88.98
61384;BME280;63511;49.346;8.798;2022-10-04T19:42:34;100742.66;;;13.57;87.42
61384;BME280;63511;49.346;8.798;2022-10-04T19:45:19;100752.81;;;13.44;87.21
61384;BME280;63511;49.346;8.798;2022-10-04T19:47:51;100758.28;;;13.37;87.47
61384;BME280;63511;49.346;8.798;2022-10-04T19:50:33;100755.47;;;13.32;87.79
61384;BME280;63511;49.346;8.798;2022-10-04T20:01:10;100761.13;;;13.28;88.03
61384;BME280;63511;49.346;8.798;2022-10-04T20:03:36;100770.88;;;13.22;89.13
61384;BME280;63511;49.346;8.798;2022-10-04T20:06:04;100770.00;;;13.22;89.12
61384;BME280;63511;49.346;8.798;2022-10-04T20:08:50;100771.88;;;13.24;88.56
61384;BME280;63511;49.346;8.798;2022-10-04T20:11:24;100767.88;;;13.14;87.93
61384;BME280;63511;49.346;8.798;2022-10-04T20:19:20;100779.34;;;13.09;88.24
61384;BME280;63511;49.346;8.798;2022-10-04T20:34:55;100788.41;;;12.93;88.71
61384;BME280;63511;49.346;8.798;2022-10-04T20:45:46;100783.91;;;12.89;88.41
61384;BME280;63511;49.346;8.798;2022-10-04T20:48:42;100793.13;;;12.75;88.91
61384;BME280;63511;49.346;8.798;2022-10-04T20:51:08;100791.41;;;12.74;88.33
61384;BME280;63511;49.346;8.798;2022-10-04T20:53:40;100797.72;;;12.67;88.27
61384;BME280;63511;49.346;8.798;2022-10-04T20:56:21;100801.31;;;12.71;87.89
61384;BME280;63511;49.346;8.798;2022-10-04T20:58:51;100811.16;;;12.66;88.13
61384;BME280;63511;49.346;8.798;2022-10-04T21:01:24;100813.03;;;12.44;88.71
61384;BME280;63511;49.346;8.798;2022-10-04T21:04:12;100818.31;;;12.47;88.37
61384;BME280;63511;49.346;8.798;2022-10-04T21:06:52;100819.44;;;12.39;87.74
61384;BME280;63511;49.346;8.798;2022-10-04T21:09:17;100825.63;;;12.43;87.73
61384;BME280;63511;49.346;8.798;2022-10-04T21:11:49;100816.38;;;12.43;87.57
61384;BME280;63511;49.346;8.798;2022-10-04T21:14:23;100815.69;;;12.46;88.31
61384;BME280;63511;49.346;8.798;2022-10-04T21:16:50;100818.03;;;12.43;88.17
61384;BME280;63511;49.346;8.798;2022-10-04T21:22:01;100814.22;;;12.24;88.91
61384;BME280;63511;49.346;8.798;2022-10-04T21:24:33;100820.44;;;12.16;89.37
61384;BME280;63511;49.346;8.798;2022-10-04T21:27:04;100824.06;;;12.20;88.57
61384;BME280;63511;49.346;8.798;2022-10-04T21:29:30;100821.78;;;12.11;89.12
61384;BME280;63511;49.346;8.798;2022-10-04T21:31:56;100816.56;;;12.21;88.86
61384;BME280;63511;49.346;8.798;2022-10-04T21:34:22;100807.56;;;12.13;87.33
61384;BME280;63511;49.346;8.798;2022-10-04T21:36:48;100810.78;;;12.11;87.94
61384;BME280;63511;49.346;8.798;2022-10-04T21:39:13;100797.38;;;12.00;89.07
61384;BME280;63511;49.346;8.798;2022-10-04T21:41:39;100802.19;;;12.09;88.84
61384;BME280;63511;49.346;8.798;2022-10-04T21:44:04;100806.47;;;12.10;87.87
61384;BME280;63511;49.346;8.798;2022-10-04T21:46:29;100803.63;;;12.05;88.14
61384;BME280;63511;49.346;8.798;2022-10-04T21:48:55;100800.09;;;12.03;88.11
61384;BME280;63511;49.346;8.798;2022-10-04T21:51:20;100800.47;;;11.96;87.85
61384;BME280;63511;49.346;8.798;2022-10-04T21:53:45;100797.41;;;11.88;87.53
61384;BME280;63511;49.346;8.798;2022-10-04T21:56:11;100793.84;;;11.98;87.41
61384;BME280;63511;49.346;8.798;2022-10-04T21:58:36;100794.31;;;11.92;86.27
61384;BME280;63511;49.346;8.798;2022-10-04T22:01:01;100797.28;;;11.87;87.00
61384;BME280;63511;49.346;8.798;2022-10-04T22:03:27;100794.00;;;11.88;87.80
61384;BME280;63511;49.346;8.798;2022-10-04T22:05:52;100791.78;;;11.92;87.40
61384;BME280;63511;49.346;8.798;2022-10-04T22:08:17;100793.03;;;11.86;87.29
61384;BME280;63511;49.346;8.798;2022-10-04T22:10:43;100791.47;;;11.88;87.17
61384;BME280;63511;49.346;8.798;2022-10-04T22:13:09;100793.47;;;11.80;87.28
61384;BME280;63511;49.346;8.798;2022-10-04T22:15:35;100789.94;;;11.78;87.08
61384;BME280;63511;49.346;8.798;2022-10-04T22:18:00;100796.13;;;11.70;87.06
61384;BME280;63511;49.346;8.798;2022-10-04T22:20:26;100793.59;;;11.70;87.09
61384;BME280;63511;49.346;8.798;2022-10-04T22:22:53;100795.00;;;11.67;87.33
61384;BME280;63511;49.346;8.798;2022-10-04T22:25:21;100790.25;;;11.71;87.52
61384;BME280;63511;49.346;8.798;2022-10-04T22:27:47;100794.47;;;11.71;86.68
61384;BME280;63511;49.346;8.798;2022-10-04T22:30:23;100792.91;;;11.61;87.25
61384;BME280;63511;49.346;8.798;2022-10-04T22:32:49;100799.53;;;11.59;88.04
61384;BME280;63511;49.346;8.798;2022-10-04T22:35:17;100801.84;;;11.56;87.49
61384;BME280;63511;49.346;8.798;2022-10-04T22:37:43;100798.91;;;11.50;87.05
61384;BME280;63511;49.346;8.798;2022-10-04T22:42:43;100785.38;;;11.49;87.06
61384;BME280;63511;49.346;8.798;2022-10-04T22:45:18;100779.63;;;11.40;86.72
61384;BME280;63511;49.346;8.798;2022-10-04T22:47:44;100777.09;;;11.40;87.91
61384;BME280;63511;49.346;8.798;2022-10-04T22:50:25;100786.69;;;11.44;88.48
61384;BME280;63511;49.346;8.798;2022-10-04T22:52:51;100787.13;;;11.39;88.79
61384;BME280;63511;49.346;8.798;2022-10-04T22:55:17;100784.41;;;11.24;89.00
61384;BME280;63511;49.346;8.798;2022-10-04T22:57:43;100785.38;;;11.38;88.34
61384;BME280;63511;49.346;8.798;2022-10-04T23:00:09;100769.06;;;11.46;87.83
61384;BME280;63511;49.346;8.798;2022-10-04T23:02:37;100773.50;;;11.48;87.53
61384;BME280;63511;49.346;8.798;2022-10-04T23:05:17;100777.22;;;11.42;87.45
61384;BME280;63511;49.346;8.798;2022-10-04T23:07:44;100784.28;;;11.34;86.93
61384;BME280;63511;49.346;8.798;2022-10-04T23:10:11;100767.34;;;11.33;86.65
61384;BME280;63511;49.346;8.798;2022-10-04T23:12:37;100762.94;;;11.31;87.17
61384;BME280;63511;49.346;8.798;2022-10-04T23:15:04;100767.56;;;11.36;86.62
61384;BME280;63511;49.346;8.798;2022-10-04T23:17:35;100764.69;;;11.43;87.17
61384;BME280;63511;49.346;8.798;2022-10-04T23:22:32;100770.88;;;11.24;87.12
61384;BME280;63511;49.346;8.798;2022-10-04T23:24:57;100772.84;;;11.28;87.47
61384;BME280;63511;49.346;8.798;2022-10-04T23:27:23;100759.84;;;11.35;87.02
61384;BME280;63511;49.346;8.798;2022-10-04T23:29:57;100752.63;;;11.28;87.25
61384;BME280;63511;49.346;8.798;2022-10-04T23:32:25;100751.97;;;11.19;86.68
61384;BME280;63511;49.346;8.798;2022-10-04T23:34:53;100758.13;;;11.34;86.21
61384;BME280;63511;49.346;8.798;2022-10-04T23:37:25;100754.59;;;11.32;86.55
61384;BME280;63511;49.346;8.798;2022-10-04T23:39:55;100752.19;;;11.33;86.70
61384;BME280;63511;49.346;8.798;2022-10-04T23:42:26;100762.75;;;11.28;86.73
61384;BME280;63511;49.346;8.798;2022-10-04T23:45:00;100757.47;;;11.13;85.83
61384;BME280;63511;49.346;8.798;2022-10-04T23:47:34;100749.13;;;11.02;85.84